• Join FlightAware (Why Join?)
  • Login
  • US Flag 
07:09AM EST


 

Airport Tracker/Info


-or-


 

Live Flight TrackerFlight Track Log ✈ SWA558 ✈ 14-Apr-2013 ✈ KAUS - KMCO

Flight Track Log - Related Links

Times and Time Zones

All times are in EDT time to prevent confusion due to time zone crossing. See the SWA558 flight status page for this flight to view local times or setup timezone preferences in your user account.

Time Position Orientation Groundspeed Altitude Reporting Facility
EDT Latitude Longitude Course Direction KTS MPH feet Rate Location/Type
06:57PM 30.1653 -97.4967 53° Northeast 294 338 9,700  Level Houston Center
06:58PM 30.2225 -97.4133 52° Northeast 326 375 11,900 2,160 Climbing Houston Center
06:59PM 30.2836 -97.3194 53° Northeast 356 410 14,200 2,520 Climbing Houston Center
07:00PM 30.3333 -96.9187 90° East  Level FlightAware Approximate
07:00PM 30.3461 -97.2214 54° Northeast 372 428 17,200  Level Houston Center
07:01PM 30.3283 -96.7745 103° East  Level FlightAware Approximate
07:01PM 30.3525 -97.0892 87° East 412 474 20,300  Level Houston Center
07:02PM 30.3444 -96.9544 94° East 419 482 22,500 2,460 Climbing Houston Center
07:03PM 30.3350 -96.7836 94° East 451 519 25,400 2,460 Climbing Houston Center
07:04PM 30.3253 -96.6372 94° East 454 522 27,700 1,980 Climbing Houston Center
07:05PM 30.3169 -96.4856 94° East 465 535 29,600 1,740 Climbing Houston Center
07:06PM 30.3053 -96.3292 95° East 480 552 31,300 1,500 Climbing Houston Center
07:07PM 30.2967 -96.1697 94° East 490 564 32,800 1,680 Climbing Houston Center
07:08PM 30.2689 -96.0181 102° East 489 563 34,800 1,560 Climbing Houston Center
07:09PM 30.2056 -95.8797 118° Southeast 484 557 36,100 1,020 Climbing Houston Center
07:10PM 30.1531 -95.7322 112° Southeast 500 575 37,000 420 Climbing Houston Center
07:11PM 30.1225 -95.5386 100° East 510 587 37,000  Level Houston Center
07:12PM 30.0978 -95.3769 100° East 510 587 37,000  Level Houston Center
07:13PM 30.0722 -95.2156 100° East 509 586 37,000 120 Level Houston Center
07:14PM 30.0472 -95.0525 100° East 511 588 37,300 660 Climbing Houston Center
07:15PM 30.0222 -94.8892 100° East 512 589 38,400 780 Climbing Houston Center
07:16PM 29.9958 -94.7269 101° East 512 589 39,000 240 Climbing Houston Center
07:17PM 29.9694 -94.5678 101° East 506 582 39,000  Level Houston Center
07:19PM 29.9414 -94.3956 101° East 502 578 39,000  Level Houston Center
07:20PM 29.9122 -94.2192 101° East 503 579 39,000  Level Houston Center
07:21PM 29.8897 -94.0814 101° East 501 577 39,000  Level Houston Center
07:22PM 29.8631 -93.9253 101° East 501 577 39,000  Level Houston Center
07:23PM 29.8319 -93.7389 101° East 499 574 39,000  Level Houston Center
07:24PM 29.8058 -93.5833 101° East 500 575 39,000  Level Houston Center
07:25PM 29.7783 -93.4269 101° East 504 580 39,000  Level Houston Center
07:26PM 29.7531 -93.2703 100° East 504 580 39,000  Level Houston Center
07:27PM 29.7261 -93.1128 101° East 506 582 39,000  Level Houston Center
07:28PM 29.6919 -92.9225 102° East 510 587 39,000  Level Houston Center
07:29PM 29.6642 -92.7617 101° East 515 593 39,000  Level Houston Center
07:30PM 29.6358 -92.6011 101° East 515 593 39,000  Level Houston Center
07:31PM 29.6067 -92.4397 102° East 518 596 39,000  Level Houston Center
07:32PM 29.5792 -92.2786 101° East 518 596 39,000  Level Houston Center
07:33PM 29.5500 -92.1214 102° East 507 583 39,000  Level Houston Center
07:34PM 29.5211 -91.9653 102° East 503 579 39,000  Level Houston Center
07:35PM 29.4872 -91.7747 102° East 509 586 39,000  Level Houston Center
07:36PM 29.4589 -91.6194 102° East 508 585 39,000  Level Houston Center
07:37PM 29.4292 -91.4606 102° East 511 588 39,000  Level Houston Center
07:38PM 29.3992 -91.3028 102° East 509 586 39,000  Level Houston Center
07:39PM 29.3703 -91.1447 102° East 508 585 39,000  Level Houston Center
07:40PM 29.3397 -90.9858 102° East 511 588 39,000  Level Houston Center
07:41PM 29.3031 -90.7967 102° East 511 588 39,000  Level Houston Center
07:42PM 29.2725 -90.6375 102° East 513 590 39,000  Level Houston Center
07:43PM 29.2408 -90.4789 103° East 514 592 39,000  Level Houston Center
07:44PM 29.2094 -90.3194 103° East 516 594 39,000  Level Houston Center
07:45PM 29.1786 -90.1608 103° East 515 593 39,000  Level Houston Center
07:46PM 29.1456 -90.0022 103° East 515 593 39,000  Level Houston Center
07:47PM 29.1056 -89.8128 104° East 515 593 39,000 180 Level Houston Center
07:48PM 29.0728 -89.6531 103° East 517 595 39,400 660 Climbing Houston Center
07:49PM 29.0392 -89.4892 103° East 529 609 40,400 780 Climbing Houston Center
07:50PM 29.0061 -89.3314 103° East 519 597 41,000 240 Climbing Houston Center
07:51PM 28.9731 -89.1714 103° East 520 598 41,000  Level Houston Center
07:52PM 28.9386 -89.0106 104° East 524 603 41,000  Level Houston Center
07:54PM 28.8972 -88.8181 104° East 523 602 41,000  Level Houston Center
07:55PM 28.8628 -88.6544 103° East 530 610 41,000  Level Houston Center
07:56PM 28.8275 -88.4942 104° East 526 605 41,000  Level Houston Center
07:57PM 28.7936 -88.3353 104° East 522 601 41,000  Level Houston Center
07:58PM 28.7583 -88.1756 104° East 522 601 41,000  Level Houston Center
07:59PM 28.7161 -87.9864 104° East 523 602 41,000  Level Houston Center
08:00PM 28.6797 -87.8217 104° East 537 618 41,000  Level Houston Center
08:01PM 28.6433 -87.6575 104° East 539 620 41,000 -60 Level Houston Center
08:02PM 28.6069 -87.4944 104° East 537 618 40,900 -120 Descending Houston Center
08:02PM 28.5989 -87.4556 103° East 520 598 40,900 60 Level Jacksonville Center
08:03PM 28.5628 -87.2956 104° East 526 605 41,000  Climbing Jacksonville Center
08:04PM 28.5189 -87.1117 105° East 521 600 41,000  Level Jacksonville Center
08:05PM 28.4842 -86.9544 104° East 526 605 41,000 -60 Level Jacksonville Center
08:06PM 28.4475 -86.7925 104° East 521 600 40,900  Descending Jacksonville Center
08:07PM 28.4083 -86.6353 106° East 521 600 41,000  Climbing Jacksonville Center
08:08PM 28.3711 -86.4783 105° East 512 589 41,000  Level Jacksonville Center
08:09PM 28.3358 -86.3236 104° East 512 589 41,000  Level Jacksonville Center
08:10PM 28.2983 -86.1622 105° East 517 595 41,000  Level Jacksonville Center
08:11PM 28.2625 -86.0078 105° East 517 595 41,000  Level Jacksonville Center
08:12PM 28.2244 -85.8536 106° East 522 601 41,000  Level Jacksonville Center
08:13PM 28.1864 -85.6853 104° East 521 600 41,000  Level Jacksonville Center
08:14PM 28.1458 -85.5311 107° East 516 594 41,000  Level Jacksonville Center
08:16PM 28.0783 -85.2467 105° East 536 617 41,000  Level Miami Center
08:17PM 28.0378 -85.0817 106° East 530 610 41,000  Level Miami Center
08:18PM 27.9992 -84.9214 105° East 537 618 41,000  Level Miami Center
08:19PM 27.9600 -84.7639 106° East 529 609 41,000  Level Miami Center
08:20PM 27.9125 -84.6008 108° East 529 609 41,000  Level Miami Center
08:21PM 27.8772 -84.4439 104° East 529 609 41,000  Level Miami Center
08:22PM 27.8353 -84.2861 107° East 524 603 41,000  Level Miami Center
08:23PM 27.7956 -84.1264 106° East 524 603 41,000 -300 Level Miami Center
08:24PM 27.7728 -83.9586 99° East 524 603 40,400 -1,080 Descending Miami Center
08:25PM 27.7811 -83.7858 87° East 529 609 38,900 -2,880 Descending Miami Center
08:26PM 27.7894 -83.6128 87° East 544 626 34,700 -3,900 Descending Miami Center
08:27PM 27.7975 -83.4372 87° East 557 641 31,100 -3,360 Descending Miami Center
08:28PM 27.8031 -83.2689 88° East 549 632 28,000 -3,000 Descending Miami Center
08:29PM 27.8058 -83.1119 89° East 524 603 25,200 -1,500 Descending Miami Center
08:30PM 27.8100 -82.9642 88° East 491 565 25,000 -120 Descending Miami Center
08:31PM 27.8133 -82.8356 88° East 472 543 25,000 -300 Level Miami Center
08:32PM 27.8128 -82.6922 90° East 462 532 24,400 -900 Descending Miami Center
08:33PM 27.8164 -82.5517 88° East 451 519 23,300 -1,200 Descending Miami Center
08:34PM 27.7611 -82.4222 116° Southeast 418 481 22,100 -1,500 Descending Miami Center
08:35PM 27.7822 -82.3061 78° East 382 440 20,400 -1,620 Descending Miami Center
08:36PM 27.8378 -82.2172 55° Northeast 368 423 18,900 -1,920 Descending Miami Center
08:37PM 27.9083 -82.1078 54° Northeast 370 426 16,600 -1,860 Descending Miami Center
08:39PM 28.0500 -81.8833 54° Northeast 381 438 13,000 -1,140 Descending Orlando TRACON
08:40PM 28.1000 -81.7667 64° Northeast 369 425 12,900 -600 Descending Orlando TRACON
08:41PM 28.1500 -81.6833 56° Northeast 341 392 11,800 -1,260 Descending Orlando TRACON
08:42PM 28.2167 -81.6000 48° Northeast 329 379 10,400 -1,440 Descending Orlando TRACON
08:43PM 28.2667 -81.5167 56° Northeast 326 375 9,000 -720 Descending Orlando TRACON
08:44PM 28.3167 -81.4333 56° Northeast 264 304 9,000  Level Orlando TRACON
08:45PM 28.3833 -81.4167 12° North 238 274 9,000 -300 Level Orlando TRACON
08:46PM 28.4500 -81.4167 360° North 237 273 8,400 -900 Descending Orlando TRACON
08:47PM 28.5167 -81.4167 360° North 239 275 7,200 -1,260 Descending Orlando TRACON
08:48PM 28.5667 -81.4167 360° North 234 269 6,100 -600 Descending Orlando TRACON
08:49PM 28.6333 -81.4167 360° North 213 245 6,000 -480 Descending Orlando TRACON
08:50PM 28.7000 -81.4167 360° North 201 231 5,100 -540 Descending Orlando TRACON
08:51PM 28.7500 -81.4000 16° North 218 251 5,000 -300 Descending Orlando TRACON
08:52PM 28.7667 -81.3500 69° East 212 244 4,600 -540 Descending Orlando TRACON
08:53PM 28.7167 -81.3333 164° South 180 207 4,000 -360 Descending Orlando TRACON
08:54PM 28.6667 -81.3333 180° South 181 208 4,000 -420 Level Orlando TRACON
08:55PM 28.6167 -81.3333 180° South 180 207 3,300 -900 Descending Orlando TRACON
08:56PM 28.5667 -81.3333 180° South 186 214 2,300 -960 Descending Orlando TRACON
08:57PM 28.5167 -81.3333 180° South 179 206 1,400 -900 Descending Orlando TRACON
08:58PM 28.4833 -81.3333 180° South 139 160 700 -780 Descending Orlando TRACON
09:00PM 28.4294 -81.3090 161° South  Level Estimated
09:07PM 28.4294 -81.3090 161° South  Level Estimated